Time;durP1;ratioP1;P1;durP2;ratioP2;P2;SDS_P1;SDS_P2;PMS_P1;PMS_P2;Temp;Humidity;BMP_temperature;BMP_pressure;BME280_temperature;BME280_humidity;BME280_pressure;Samples;Min_cycle;Max_cycle;Signal;HPM_P1;HPM_P2
2022/08/09 00:01:26;;;;;;;3.17;2.35;;;;;;;;;;5065082;28;20046;-76
2022/08/09 00:03:53;;;;;;;3.17;2.47;;;;;;;;;;5032796;28;20140;-75
2022/08/09 00:06:18;;;;;;;3.80;2.78;;;;;;;;;;5065205;28;20519;-75
2022/08/09 00:08:49;;;;;;;2.88;2.30;;;;;;;;;;5033472;28;20096;-76
2022/08/09 00:11:15;;;;;;;5.55;2.60;;;;;;;;;;5064961;28;20057;-75
2022/08/09 00:13:41;;;;;;;3.90;2.88;;;;;;;;;;5065573;28;20080;-75
2022/08/09 00:16:07;;;;;;;3.45;2.47;;;;;;;;;;5032838;28;20397;-75
2022/08/09 00:18:33;;;;;;;4.45;2.70;;;;;;;;;;5064016;28;20052;-75
2022/08/09 00:21:01;;;;;;;2.97;2.50;;;;;;;;;;5065056;28;20084;-75
2022/08/09 00:23:27;;;;;;;3.70;2.60;;;;;;;;;;5064766;28;20092;-75
2022/08/09 00:25:53;;;;;;;3.90;2.60;;;;;;;;;;5032425;28;20100;-75
2022/08/09 00:28:20;;;;;;;3.20;2.60;;;;;;;;;;5032654;28;20057;-75
2022/08/09 00:30:46;;;;;;;3.95;2.70;;;;;;;;;;5033325;28;20092;-75
2022/08/09 00:33:12;;;;;;;3.28;2.50;;;;;;;;;;5032252;28;20081;-75
2022/08/09 00:35:38;;;;;;;3.80;2.47;;;;;;;;;;5033219;28;20043;-75
2022/08/09 00:38:04;;;;;;;2.90;2.70;;;;;;;;;;5031086;28;20056;-75
2022/08/09 00:40:30;;;;;;;5.30;2.90;;;;;;;;;;5032261;28;20386;-75
2022/08/09 00:42:56;;;;;;;4.97;2.92;;;;;;;;;;5032653;28;20482;-74
2022/08/09 00:45:22;;;;;;;3.88;2.60;;;;;;;;;;5064780;28;20048;-74
2022/08/09 00:47:48;;;;;;;2.65;2.45;;;;;;;;;;5064004;28;20049;-74
2022/08/09 00:50:14;;;;;;;3.47;2.60;;;;;;;;;;5064020;28;20041;-74
2022/08/09 00:52:40;;;;;;;2.95;2.65;;;;;;;;;;5032758;28;20060;-74
2022/08/09 00:55:06;;;;;;;5.00;3.20;;;;;;;;;;5032052;28;20037;-74
2022/08/09 00:57:32;;;;;;;3.58;2.90;;;;;;;;;;5065024;28;20138;-74
2022/08/09 00:59:58;;;;;;;3.88;3.08;;;;;;;;;;5064444;28;20049;-74
2022/08/09 01:02:27;;;;;;;3.22;2.78;;;;;;;;;;5063830;28;20045;-74
2022/08/09 01:04:59;;;;;;;3.38;3.08;;;;;;;;;;5077730;28;20049;-74
2022/08/09 01:07:41;;;;;;;3.78;3.08;;;;;;;;;;5044208;28;20045;-74
2022/08/09 01:10:30;;;;;;;3.13;2.63;;;;;;;;;;5033009;28;20052;-75
2022/08/09 01:12:56;;;;;;;3.17;2.60;;;;;;;;;;5038042;28;20057;-74
2022/08/09 01:15:25;;;;;;;3.00;2.80;;;;;;;;;;5063861;28;20033;-75
2022/08/09 01:17:54;;;;;;;4.68;3.10;;;;;;;;;;5064781;28;20052;-75
2022/08/09 01:20:41;;;;;;;3.63;2.90;;;;;;;;;;5033099;28;20053;-74
2022/08/09 01:23:33;;;;;;;3.22;2.90;;;;;;;;;;5050780;28;20091;-75
2022/08/09 01:26:14;;;;;;;4.13;2.90;;;;;;;;;;5040658;28;20103;-75
2022/08/09 01:28:43;;;;;;;3.00;2.80;;;;;;;;;;5063517;28;20054;-75
2022/08/09 01:31:12;;;;;;;3.33;3.03;;;;;;;;;;5032345;28;20064;-75
2022/08/09 01:33:39;;;;;;;4.45;2.80;;;;;;;;;;5032404;28;20041;-74
2022/08/09 01:36:10;;;;;;;4.03;2.83;;;;;;;;;;5063346;28;20045;-75
2022/08/09 01:38:39;;;;;;;2.90;2.60;;;;;;;;;;5032513;28;20452;-74
2022/08/09 01:41:18;;;;;;;3.03;2.80;;;;;;;;;;5050709;28;20044;-74
2022/08/09 01:43:46;;;;;;;2.97;2.70;;;;;;;;;;5051266;28;20570;-74
2022/08/09 01:46:14;;;;;;;3.10;2.80;;;;;;;;;;5052214;28;20106;-74
2022/08/09 01:48:41;;;;;;;4.97;2.95;;;;;;;;;;5041243;28;20072;-74
2022/08/09 01:51:08;;;;;;;3.50;2.72;;;;;;;;;;5031382;28;20077;-74
2022/08/09 01:53:34;;;;;;;3.60;3.30;;;;;;;;;;5030747;28;20057;-74
2022/08/09 01:56:01;;;;;;;4.03;3.22;;;;;;;;;;5032535;28;20049;-74
2022/08/09 01:58:28;;;;;;;5.20;3.63;;;;;;;;;;5063640;28;20409;-74
2022/08/09 02:00:55;;;;;;;3.60;3.30;;;;;;;;;;5070363;28;20175;-75
2022/08/09 02:03:21;;;;;;;4.38;3.42;;;;;;;;;;5053482;28;20072;-74
2022/08/09 02:05:49;;;;;;;3.88;3.47;;;;;;;;;;5055830;28;20502;-74
2022/08/09 02:08:17;;;;;;;3.85;3.40;;;;;;;;;;5054705;28;20049;-74
2022/08/09 02:10:45;;;;;;;3.90;3.40;;;;;;;;;;5047339;28;20159;-76
2022/08/09 02:13:12;;;;;;;4.15;3.30;;;;;;;;;;5035873;28;20037;-76
2022/08/09 02:15:40;;;;;;;5.57;3.60;;;;;;;;;;5035017;28;20485;-75
2022/08/09 02:18:07;;;;;;;4.28;3.63;;;;;;;;;;5033449;28;20135;-76
2022/08/09 02:20:38;;;;;;;4.38;3.58;;;;;;;;;;5035479;28;20045;-75
2022/08/09 02:23:04;;;;;;;3.75;3.45;;;;;;;;;;5035185;28;20058;-76
2022/08/09 02:25:33;;;;;;;4.25;3.85;;;;;;;;;;5034918;28;20120;-75
2022/08/09 02:28:02;;;;;;;3.78;3.40;;;;;;;;;;5066582;28;20049;-75
2022/08/09 02:30:31;;;;;;;4.10;3.80;;;;;;;;;;5035188;28;20501;-76
2022/08/09 02:32:58;;;;;;;4.20;3.90;;;;;;;;;;5034689;28;20081;-75
2022/08/09 02:35:25;;;;;;;4.10;3.80;;;;;;;;;;5067479;28;20065;-75
2022/08/09 02:37:52;;;;;;;6.03;4.22;;;;;;;;;;5034901;28;20542;-76
2022/08/09 02:40:20;;;;;;;4.65;4.25;;;;;;;;;;5066350;28;20052;-75
2022/08/09 02:42:48;;;;;;;4.38;3.97;;;;;;;;;;5049907;28;20046;-75
2022/08/09 02:45:16;;;;;;;5.35;3.90;;;;;;;;;;5053340;28;20061;-75
2022/08/09 02:47:43;;;;;;;5.45;3.70;;;;;;;;;;5041513;28;20409;-75
2022/08/09 02:50:13;;;;;;;4.72;3.70;;;;;;;;;;5033844;28;20053;-76
2022/08/09 02:52:42;;;;;;;3.92;3.50;;;;;;;;;;5034359;28;20038;-75
2022/08/09 02:55:09;;;;;;;4.25;3.85;;;;;;;;;;5033411;28;20041;-75
2022/08/09 02:57:36;;;;;;;4.18;3.63;;;;;;;;;;5034936;28;20045;-75
2022/08/09 03:00:04;;;;;;;4.13;3.72;;;;;;;;;;5065700;28;20053;-75
2022/08/09 03:02:31;;;;;;;4.50;4.00;;;;;;;;;;5034919;28;20126;-75
2022/08/09 03:04:58;;;;;;;4.22;3.83;;;;;;;;;;5043199;28;20138;-76
2022/08/09 03:07:24;;;;;;;4.45;4.05;;;;;;;;;;5052425;28;20052;-76
2022/08/09 03:09:51;;;;;;;4.60;4.07;;;;;;;;;;5054430;28;20048;-75
2022/08/09 03:12:18;;;;;;;4.43;4.03;;;;;;;;;;5049113;28;20044;-75
2022/08/09 03:14:44;;;;;;;3.90;3.55;;;;;;;;;;5032480;28;20057;-75
2022/08/09 03:17:11;;;;;;;4.85;3.75;;;;;;;;;;5037208;28;20111;-75
2022/08/09 03:19:38;;;;;;;4.55;3.88;;;;;;;;;;5053008;28;20045;-75
2022/08/09 03:22:05;;;;;;;4.40;3.65;;;;;;;;;;5051906;28;20067;-75
2022/08/09 03:24:31;;;;;;;6.32;3.85;;;;;;;;;;5044136;28;20155;-76
2022/08/09 03:26:58;;;;;;;4.53;4.10;;;;;;;;;;5045140;28;20426;-75
2022/08/09 03:29:24;;;;;;;4.53;4.10;;;;;;;;;;5052212;28;20382;-75
2022/08/09 03:31:51;;;;;;;4.70;4.20;;;;;;;;;;5040349;28;20041;-75
2022/08/09 03:34:17;;;;;;;3.88;3.55;;;;;;;;;;5034380;28;20403;-76
2022/08/09 03:36:43;;;;;;;4.63;3.92;;;;;;;;;;5031818;28;20045;-75
2022/08/09 03:39:09;;;;;;;4.53;3.85;;;;;;;;;;5065443;28;20140;-75
2022/08/09 03:41:35;;;;;;;5.90;4.32;;;;;;;;;;5065917;28;20065;-75
2022/08/09 03:44:01;;;;;;;5.80;4.50;;;;;;;;;;5033011;28;20076;-75
2022/08/09 03:46:27;;;;;;;5.78;4.28;;;;;;;;;;5033891;28;20072;-75
2022/08/09 03:48:57;;;;;;;5.65;4.60;;;;;;;;;;5064909;28;20493;-75
2022/08/09 03:51:24;;;;;;;5.00;4.50;;;;;;;;;;5065381;28;20053;-75
2022/08/09 03:53:51;;;;;;;6.78;4.18;;;;;;;;;;5065902;28;20052;-75
2022/08/09 03:56:17;;;;;;;5.65;4.57;;;;;;;;;;5065130;28;20495;-75
2022/08/09 03:58:43;;;;;;;5.50;4.50;;;;;;;;;;5065700;28;20049;-75
2022/08/09 04:01:09;;;;;;;4.57;4.18;;;;;;;;;;5053713;28;20040;-75
2022/08/09 04:03:41;;;;;;;6.20;4.32;;;;;;;;;;5039139;28;20398;-75
2022/08/09 04:06:07;;;;;;;5.30;4.30;;;;;;;;;;5033662;28;20041;-76
2022/08/09 04:08:33;;;;;;;4.80;4.40;;;;;;;;;;5033201;28;20499;-75
2022/08/09 04:10:59;;;;;;;4.60;4.07;;;;;;;;;;5064324;28;20549;-75
2022/08/09 04:13:25;;;;;;;4.38;3.97;;;;;;;;;;5065631;28;20161;-76
2022/08/09 04:15:51;;;;;;;5.72;4.35;;;;;;;;;;5064829;28;20069;-75
2022/08/09 04:18:18;;;;;;;4.70;4.38;;;;;;;;;;5064697;28;20144;-75
2022/08/09 04:20:46;;;;;;;4.95;4.43;;;;;;;;;;5033313;28;20049;-75
2022/08/09 04:23:12;;;;;;;6.03;4.30;;;;;;;;;;5032874;28;20072;-75
2022/08/09 04:25:38;;;;;;;4.85;4.40;;;;;;;;;;5032009;28;20459;-76
2022/08/09 04:28:04;;;;;;;4.90;4.45;;;;;;;;;;5033244;28;20049;-76
2022/08/09 04:30:30;;;;;;;6.22;4.70;;;;;;;;;;5046476;28;20110;-75
2022/08/09 04:32:58;;;;;;;6.75;4.60;;;;;;;;;;5050747;28;20045;-75
2022/08/09 04:35:25;;;;;;;8.00;4.50;;;;;;;;;;5042402;28;20057;-75
2022/08/09 04:37:51;;;;;;;4.50;4.10;;;;;;;;;;5033180;28;20041;-76
2022/08/09 04:40:17;;;;;;;5.60;4.32;;;;;;;;;;5030647;28;20544;-75
2022/08/09 04:42:46;;;;;;;4.43;3.85;;;;;;;;;;5032054;28;20053;-75
2022/08/09 04:45:12;;;;;;;3.97;3.65;;;;;;;;;;5064066;28;20050;-75
2022/08/09 04:47:38;;;;;;;4.93;3.95;;;;;;;;;;5032658;28;20092;-75
2022/08/09 04:50:04;;;;;;;5.45;4.13;;;;;;;;;;5064720;28;20049;-75
2022/08/09 04:52:30;;;;;;;4.43;3.97;;;;;;;;;;5064057;28;20425;-75
2022/08/09 04:54:58;;;;;;;4.75;3.92;;;;;;;;;;5032746;28;20488;-75
2022/08/09 04:57:24;;;;;;;4.45;4.03;;;;;;;;;;5067168;28;20072;-75
2022/08/09 04:59:50;;;;;;;5.38;4.13;;;;;;;;;;5052008;28;20048;-75
2022/08/09 05:02:16;;;;;;;4.93;4.10;;;;;;;;;;5052244;28;20048;-75
2022/08/09 05:04:42;;;;;;;5.55;4.50;;;;;;;;;;5035045;28;20413;-75
2022/08/09 05:07:08;;;;;;;4.80;4.40;;;;;;;;;;5031835;28;20049;-75
2022/08/09 05:09:34;;;;;;;4.20;3.80;;;;;;;;;;5032671;28;20049;-75
2022/08/09 05:12:00;;;;;;;4.75;4.25;;;;;;;;;;5032699;28;20037;-75
2022/08/09 05:14:26;;;;;;;5.47;4.35;;;;;;;;;;5031623;28;20064;-75
2022/08/09 05:16:52;;;;;;;5.20;4.30;;;;;;;;;;5031364;28;20046;-75
2022/08/09 05:19:20;;;;;;;4.90;4.40;;;;;;;;;;5064817;28;20454;-75
2022/08/09 05:21:49;;;;;;;5.10;4.25;;;;;;;;;;5071227;28;20057;-75
2022/08/09 05:24:15;;;;;;;6.18;4.60;;;;;;;;;;5051060;28;20421;-75
2022/08/09 05:26:41;;;;;;;5.05;4.25;;;;;;;;;;5050968;28;20075;-75
2022/08/09 05:29:07;;;;;;;4.60;4.20;;;;;;;;;;5041893;28;20040;-75
2022/08/09 05:31:33;;;;;;;5.55;4.60;;;;;;;;;;5050118;28;20068;-75
2022/08/09 05:33:59;;;;;;;5.65;4.20;;;;;;;;;;5051567;28;20107;-75
2022/08/09 05:36:25;;;;;;;4.97;4.47;;;;;;;;;;5046014;28;20041;-75
2022/08/09 05:38:51;;;;;;;6.65;4.43;;;;;;;;;;5036351;28;20480;-75
2022/08/09 05:41:17;;;;;;;4.82;4.32;;;;;;;;;;5035501;28;20045;-75
2022/08/09 05:43:43;;;;;;;4.35;3.95;;;;;;;;;;5034593;28;20107;-75
2022/08/09 05:46:10;;;;;;;4.30;3.90;;;;;;;;;;5068177;28;20049;-75
2022/08/09 05:48:36;;;;;;;6.78;4.30;;;;;;;;;;5067467;28;20076;-75
2022/08/09 05:51:02;;;;;;;4.95;3.92;;;;;;;;;;5035140;28;20048;-75
2022/08/09 05:53:28;;;;;;;4.70;3.95;;;;;;;;;;5035655;28;20053;-75
2022/08/09 05:55:57;;;;;;;5.07;3.47;;;;;;;;;;5035565;28;20048;-75
2022/08/09 05:58:23;;;;;;;3.42;3.13;;;;;;;;;;5035358;28;20038;-75
2022/08/09 06:00:49;;;;;;;4.30;3.90;;;;;;;;;;5067860;28;20111;-75
2022/08/09 06:03:15;;;;;;;4.03;3.63;;;;;;;;;;5066891;28;20045;-76
2022/08/09 06:05:41;;;;;;;3.90;3.50;;;;;;;;;;5035541;28;20448;-75
2022/08/09 06:08:07;;;;;;;4.88;3.85;;;;;;;;;;5067755;28;20045;-75
2022/08/09 06:10:39;;;;;;;3.95;3.55;;;;;;;;;;5035110;28;20034;-75
2022/08/09 06:13:06;;;;;;;5.57;4.03;;;;;;;;;;5067152;28;20046;-75
2022/08/09 06:15:32;;;;;;;3.67;3.30;;;;;;;;;;5067523;28;20485;-75
2022/08/09 06:17:58;;;;;;;4.05;3.58;;;;;;;;;;5034927;28;20175;-76
2022/08/09 06:20:24;;;;;;;4.95;3.40;;;;;;;;;;5035283;28;20480;-75
2022/08/09 06:22:50;;;;;;;6.60;3.55;;;;;;;;;;5066805;28;20050;-75
2022/08/09 06:25:22;;;;;;;3.33;3.03;;;;;;;;;;5034806;28;20045;-75
2022/08/09 06:27:48;;;;;;;4.90;3.50;;;;;;;;;;5035589;28;20046;-75
2022/08/09 06:30:14;;;;;;;4.63;3.63;;;;;;;;;;5035483;28;20154;-75
2022/08/09 06:32:41;;;;;;;3.90;3.60;;;;;;;;;;5066798;28;20049;-75
2022/08/09 06:35:08;;;;;;;4.75;3.58;;;;;;;;;;5067339;28;20131;-75
2022/08/09 06:37:34;;;;;;;4.20;3.80;;;;;;;;;;5034612;28;20057;-75
2022/08/09 06:40:00;;;;;;;5.45;4.10;;;;;;;;;;5066246;28;20405;-75
2022/08/09 06:42:26;;;;;;;4.45;4.03;;;;;;;;;;5066995;28;20120;-75
2022/08/09 06:44:52;;;;;;;7.75;4.10;;;;;;;;;;5034152;28;20048;-75
2022/08/09 06:47:18;;;;;;;5.60;3.88;;;;;;;;;;5065864;28;20049;-75
2022/08/09 06:49:44;;;;;;;8.93;4.38;;;;;;;;;;5066727;28;20493;-76
2022/08/09 06:52:11;;;;;;;4.50;3.63;;;;;;;;;;5034289;28;20049;-75
2022/08/09 06:54:37;;;;;;;5.88;4.00;;;;;;;;;;5035131;28;20103;-75
2022/08/09 06:57:03;;;;;;;7.32;3.90;;;;;;;;;;5034748;28;20053;-75
2022/08/09 06:59:29;;;;;;;4.82;3.80;;;;;;;;;;5033918;28;20045;-75
2022/08/09 07:01:55;;;;;;;4.15;3.55;;;;;;;;;;5067119;28;20055;-75
2022/08/09 07:04:21;;;;;;;4.45;3.70;;;;;;;;;;5035198;28;20371;-76
2022/08/09 07:06:47;;;;;;;4.60;3.28;;;;;;;;;;5065823;28;20099;-75
2022/08/09 07:09:14;;;;;;;3.83;3.50;;;;;;;;;;5066405;28;20094;-75
2022/08/09 07:11:40;;;;;;;3.20;2.90;;;;;;;;;;5066539;28;20057;-75
2022/08/09 07:14:06;;;;;;;3.65;3.13;;;;;;;;;;5033517;28;20052;-75
2022/08/09 07:16:32;;;;;;;3.85;2.70;;;;;;;;;;5034575;28;20045;-76
2022/08/09 07:18:58;;;;;;;3.55;2.90;;;;;;;;;;5034419;28;20077;-76
2022/08/09 07:21:24;;;;;;;2.85;2.65;;;;;;;;;;5033639;28;20096;-75
2022/08/09 07:23:50;;;;;;;3.45;2.33;;;;;;;;;;5034133;28;20081;-75
2022/08/09 07:26:16;;;;;;;2.67;2.30;;;;;;;;;;5032747;28;20126;-75
2022/08/09 07:28:42;;;;;;;5.15;2.80;;;;;;;;;;5064299;28;20187;-75
2022/08/09 07:31:08;;;;;;;3.85;2.42;;;;;;;;;;5052937;28;20056;-75
2022/08/09 07:33:34;;;;;;;3.70;2.53;;;;;;;;;;5053918;28;20053;-75
2022/08/09 07:36:00;;;;;;;5.03;2.42;;;;;;;;;;5035030;28;20053;-75
2022/08/09 07:38:26;;;;;;;3.30;2.13;;;;;;;;;;5034073;28;20042;-75
2022/08/09 07:40:53;;;;;;;3.63;2.17;;;;;;;;;;5034209;28;20389;-75
2022/08/09 07:43:19;;;;;;;3.70;2.40;;;;;;;;;;5031909;28;20078;-75
2022/08/09 07:45:45;;;;;;;2.97;2.50;;;;;;;;;;5042240;28;20392;-75
2022/08/09 07:48:11;;;;;;;3.15;2.53;;;;;;;;;;5052857;28;20408;-75
2022/08/09 07:50:39;;;;;;;2.60;2.10;;;;;;;;;;5037232;28;20486;-75
2022/08/09 07:53:06;;;;;;;3.67;2.10;;;;;;;;;;5033587;28;20132;-75
2022/08/09 07:55:33;;;;;;;2.50;2.20;;;;;;;;;;5032911;28;20107;-75
2022/08/09 07:57:59;;;;;;;2.58;2.20;;;;;;;;;;5050544;28;20045;-75
2022/08/09 08:00:25;;;;;;;4.70;2.38;;;;;;;;;;5051796;28;20504;-75
2022/08/09 08:02:51;;;;;;;2.33;2.10;;;;;;;;;;5052061;28;20438;-75
2022/08/09 08:05:17;;;;;;;2.53;2.20;;;;;;;;;;5033426;28;20505;-75
2022/08/09 08:07:43;;;;;;;3.00;2.67;;;;;;;;;;5033164;28;20512;-75
2022/08/09 08:10:09;;;;;;;4.80;2.78;;;;;;;;;;5032762;28;20049;-75
2022/08/09 08:12:36;;;;;;;5.55;2.65;;;;;;;;;;5065003;28;20103;-76
2022/08/09 08:15:03;;;;;;;4.65;2.00;;;;;;;;;;5077279;28;20045;-75
2022/08/09 08:17:29;;;;;;;2.95;1.95;;;;;;;;;;5051196;28;20068;-75
2022/08/09 08:19:55;;;;;;;4.22;2.10;;;;;;;;;;5051684;28;20385;-75
2022/08/09 08:22:21;;;;;;;2.17;1.80;;;;;;;;;;5036645;28;20145;-75
2022/08/09 08:24:50;;;;;;;2.08;1.80;;;;;;;;;;5032358;28;20124;-75
2022/08/09 08:27:16;;;;;;;2.05;1.60;;;;;;;;;;5031995;28;20382;-75
2022/08/09 08:29:42;;;;;;;2.17;1.70;;;;;;;;;;5064993;28;20115;-75
2022/08/09 08:32:08;;;;;;;1.73;1.60;;;;;;;;;;5064545;28;20038;-75
2022/08/09 08:34:34;;;;;;;2.20;1.88;;;;;;;;;;5031971;28;20094;-75
2022/08/09 08:37:00;;;;;;;1.95;1.80;;;;;;;;;;5031357;28;20538;-75
2022/08/09 08:39:26;;;;;;;2.10;1.60;;;;;;;;;;5032053;28;20538;-76
2022/08/09 08:41:53;;;;;;;2.00;1.70;;;;;;;;;;5031368;28;20124;-75
2022/08/09 08:44:21;;;;;;;1.90;1.45;;;;;;;;;;5064152;28;20077;-75
2022/08/09 08:46:50;;;;;;;2.33;1.60;;;;;;;;;;5032714;28;20045;-75
2022/08/09 08:49:16;;;;;;;3.40;1.80;;;;;;;;;;5032671;28;20095;-75
2022/08/09 08:51:42;;;;;;;1.85;1.67;;;;;;;;;;5031973;28;20042;-75
2022/08/09 08:54:10;;;;;;;2.33;1.90;;;;;;;;;;5065119;28;20481;-75
2022/08/09 08:56:37;;;;;;;2.55;1.85;;;;;;;;;;5032671;28;20048;-75
2022/08/09 08:59:07;;;;;;;2.65;1.85;;;;;;;;;;5063978;28;20076;-75
2022/08/09 09:01:35;;;;;;;2.80;1.95;;;;;;;;;;5032626;28;20043;-75
2022/08/09 09:04:08;;;;;;;3.53;1.90;;;;;;;;;;5064510;28;20053;-75
2022/08/09 09:06:36;;;;;;;1.90;1.80;;;;;;;;;;5064112;28;20049;-75
2022/08/09 09:09:03;;;;;;;2.08;1.88;;;;;;;;;;5046267;28;20045;-75
2022/08/09 09:11:29;;;;;;;3.47;2.00;;;;;;;;;;5054593;28;20045;-76
2022/08/09 09:13:57;;;;;;;2.38;2.10;;;;;;;;;;5054469;28;20106;-76
2022/08/09 09:16:23;;;;;;;3.38;2.30;;;;;;;;;;5048536;28;20362;-76
2022/08/09 09:18:53;;;;;;;2.30;2.20;;;;;;;;;;5036878;28;20045;-76
2022/08/09 09:21:20;;;;;;;3.22;2.15;;;;;;;;;;5034724;28;20053;-76
2022/08/09 09:23:46;;;;;;;5.38;2.50;;;;;;;;;;5036142;28;20054;-76
2022/08/09 09:26:13;;;;;;;4.93;2.38;;;;;;;;;;5068512;28;20413;-75
2022/08/09 09:28:43;;;;;;;6.35;2.42;;;;;;;;;;5067709;28;20041;-75
2022/08/09 09:31:12;;;;;;;3.88;2.40;;;;;;;;;;5039023;28;20505;-76
2022/08/09 09:33:39;;;;;;;2.40;2.20;;;;;;;;;;5035293;28;20051;-75
2022/08/09 09:36:06;;;;;;;2.20;2.00;;;;;;;;;;5036319;28;20077;-75
2022/08/09 09:38:39;;;;;;;3.42;2.13;;;;;;;;;;5036235;28;20049;-76
2022/08/09 09:41:05;;;;;;;2.30;2.03;;;;;;;;;;5035450;28;20053;-76
2022/08/09 09:43:31;;;;;;;2.15;1.85;;;;;;;;;;5086523;28;20037;-75
2022/08/09 09:46:01;;;;;;;2.08;1.88;;;;;;;;;;5055796;28;20060;-75
2022/08/09 09:48:28;;;;;;;2.83;1.80;;;;;;;;;;5055280;28;20455;-75
2022/08/09 09:50:54;;;;;;;3.78;1.92;;;;;;;;;;5049593;28;20518;-76
2022/08/09 09:53:21;;;;;;;2.03;1.60;;;;;;;;;;5036055;28;20087;-76
2022/08/09 09:55:55;;;;;;;1.95;1.75;;;;;;;;;;5039999;28;20052;-75
2022/08/09 09:58:21;;;;;;;2.10;1.90;;;;;;;;;;5054095;28;20049;-75
2022/08/09 10:00:47;;;;;;;2.05;1.90;;;;;;;;;;5034461;28;20041;-75
2022/08/09 10:03:13;;;;;;;2.55;2.00;;;;;;;;;;5033977;28;20114;-76
2022/08/09 10:05:58;;;;;;;1.85;1.70;;;;;;;;;;5035781;28;20568;-76
2022/08/09 10:08:24;;;;;;;3.50;1.98;;;;;;;;;;5034165;28;20116;-76
2022/08/09 10:10:50;;;;;;;3.30;2.00;;;;;;;;;;5066891;28;20050;-76
2022/08/09 10:13:17;;;;;;;2.00;1.77;;;;;;;;;;5035541;28;20041;-76
2022/08/09 10:15:50;;;;;;;2.03;1.70;;;;;;;;;;5066726;28;20045;-77
2022/08/09 10:18:16;;;;;;;2.63;1.70;;;;;;;;;;5035228;28;20600;-76
2022/08/09 10:20:42;;;;;;;2.15;1.30;;;;;;;;;;5067546;28;20051;-76
2022/08/09 10:23:18;;;;;;;1.70;1.60;;;;;;;;;;5065842;28;20061;-75
2022/08/09 10:25:48;;;;;;;1.70;1.60;;;;;;;;;;5067216;28;20053;-76
2022/08/09 10:28:14;;;;;;;1.52;1.42;;;;;;;;;;5035526;28;20050;-76
2022/08/09 10:30:41;;;;;;;1.30;1.30;;;;;;;;;;5066733;28;20049;-76
2022/08/09 10:33:07;;;;;;;1.55;1.42;;;;;;;;;;5035271;28;20045;-76
2022/08/09 10:35:34;;;;;;;2.00;1.73;;;;;;;;;;5067001;28;20120;-76
2022/08/09 10:38:00;;;;;;;1.40;1.30;;;;;;;;;;5066313;28;20049;-76
2022/08/09 10:40:27;;;;;;;1.60;1.38;;;;;;;;;;5034860;28;20517;-76
2022/08/09 10:42:53;;;;;;;1.95;1.20;;;;;;;;;;5067103;28;20049;-76
2022/08/09 10:45:19;;;;;;;1.55;1.30;;;;;;;;;;5033944;28;20081;-76
2022/08/09 10:47:46;;;;;;;1.35;1.25;;;;;;;;;;5050794;28;20389;-76
2022/08/09 10:50:12;;;;;;;2.25;1.67;;;;;;;;;;5054683;28;20606;-76
2022/08/09 10:52:48;;;;;;;2.75;1.40;;;;;;;;;;5051457;28;20107;-76
2022/08/09 10:55:20;;;;;;;2.10;1.35;;;;;;;;;;5033937;28;20351;-76
2022/08/09 10:57:46;;;;;;;2.77;1.60;;;;;;;;;;5034691;28;20477;-76
2022/08/09 11:00:30;;;;;;;3.15;1.95;;;;;;;;;;5034128;28;20140;-76
2022/08/09 11:02:57;;;;;;;2.05;1.55;;;;;;;;;;5034544;28;20045;-76
2022/08/09 11:05:23;;;;;;;1.85;1.60;;;;;;;;;;5034026;28;20128;-77
2022/08/09 11:07:49;;;;;;;2.08;1.67;;;;;;;;;;5066632;28;20053;-76
2022/08/09 11:10:35;;;;;;;2.15;1.60;;;;;;;;;;5066717;28;20147;-76
2022/08/09 11:13:20;;;;;;;1.85;1.40;;;;;;;;;;5032894;28;20378;-76
2022/08/09 11:15:46;;;;;;;2.13;1.30;;;;;;;;;;5066274;28;20382;-76
2022/08/09 11:18:31;;;;;;;1.65;1.35;;;;;;;;;;5035039;28;20069;-76
2022/08/09 11:20:57;;;;;;;1.73;1.50;;;;;;;;;;5046365;28;20045;-76
2022/08/09 11:23:23;;;;;;;1.50;1.40;;;;;;;;;;5054075;28;20092;-76
2022/08/09 11:25:49;;;;;;;1.70;1.60;;;;;;;;;;5053933;28;20476;-76
2022/08/09 11:28:29;;;;;;;1.50;1.40;;;;;;;;;;5052280;28;20134;-76
2022/08/09 11:30:55;;;;;;;2.10;1.40;;;;;;;;;;5035143;28;20092;-76
2022/08/09 11:33:21;;;;;;;1.58;1.48;;;;;;;;;;5052569;28;20445;-76
2022/08/09 11:35:52;;;;;;;1.92;1.30;;;;;;;;;;5036112;28;20057;-76
2022/08/09 11:38:20;;;;;;;1.60;1.50;;;;;;;;;;5032725;28;20039;-76
2022/08/09 11:40:46;;;;;;;1.58;1.45;;;;;;;;;;5033249;28;20046;-76
2022/08/09 11:43:16;;;;;;;1.65;1.55;;;;;;;;;;5033732;28;20080;-76
2022/08/09 11:45:53;;;;;;;1.70;1.45;;;;;;;;;;5033954;28;20061;-77
2022/08/09 11:48:23;;;;;;;2.78;1.40;;;;;;;;;;5065113;28;20076;-76
2022/08/09 11:51:03;;;;;;;2.85;1.60;;;;;;;;;;5033968;28;20053;-76
2022/08/09 11:53:30;;;;;;;1.75;1.45;;;;;;;;;;5033742;28;20037;-76
2022/08/09 11:55:58;;;;;;;2.42;1.50;;;;;;;;;;5065023;28;20536;-76
2022/08/09 11:58:27;;;;;;;1.38;1.30;;;;;;;;;;5032703;28;20490;-76
2022/08/09 12:01:00;;;;;;;1.70;1.50;;;;;;;;;;5065376;28;20052;-76
2022/08/09 12:03:27;;;;;;;2.10;1.50;;;;;;;;;;5064908;28;20095;-76
2022/08/09 12:05:54;;;;;;;1.85;1.20;;;;;;;;;;5065418;28;20477;-77
2022/08/09 12:08:21;;;;;;;1.45;1.35;;;;;;;;;;5032695;28;20099;-77
2022/08/09 12:10:59;;;;;;;1.42;1.33;;;;;;;;;;5065790;28;20085;-77
2022/08/09 12:13:35;;;;;;;2.65;1.42;;;;;;;;;;5033564;28;20052;-76
2022/08/09 12:16:09;;;;;;;1.60;1.17;;;;;;;;;;5064288;28;20064;-76
2022/08/09 12:18:36;;;;;;;2.45;1.40;;;;;;;;;;5033031;28;20132;-76
2022/08/09 12:21:03;;;;;;;2.55;1.40;;;;;;;;;;5033471;28;20043;-76
2022/08/09 12:23:30;;;;;;;4.05;1.60;;;;;;;;;;5064209;28;20100;-76
2022/08/09 12:25:57;;;;;;;1.73;1.30;;;;;;;;;;5032886;28;20081;-76
2022/08/09 12:28:24;;;;;;;1.35;1.25;;;;;;;;;;5065299;28;20054;-77
2022/08/09 12:30:50;;;;;;;1.83;1.38;;;;;;;;;;5032375;28;20556;-77
2022/08/09 12:33:17;;;;;;;1.10;1.10;;;;;;;;;;5042457;28;20374;-77
2022/08/09 12:35:43;;;;;;;3.55;1.30;;;;;;;;;;5053253;28;20049;-76
2022/08/09 12:38:19;;;;;;;1.73;1.10;;;;;;;;;;5038337;28;20128;-77
2022/08/09 12:40:47;;;;;;;1.10;1.05;;;;;;;;;;5032622;28;20057;-76
2022/08/09 12:43:13;;;;;;;2.28;1.20;;;;;;;;;;5033049;28;20073;-76
2022/08/09 12:45:39;;;;;;;1.50;1.20;;;;;;;;;;5030924;28;20524;-76
2022/08/09 12:48:07;;;;;;;1.65;1.10;;;;;;;;;;5064535;28;20052;-77
2022/08/09 12:50:34;;;;;;;1.17;1.17;;;;;;;;;;5031891;28;20057;-77
2022/08/09 12:53:00;;;;;;;1.77;1.10;;;;;;;;;;5033144;28;20041;-76
2022/08/09 12:55:27;;;;;;;0.90;0.90;;;;;;;;;;5064786;28;20041;-76
2022/08/09 12:57:53;;;;;;;1.90;1.00;;;;;;;;;;5064028;28;20076;-76
2022/08/09 13:00:21;;;;;;;0.93;0.93;;;;;;;;;;5032394;28;20124;-76
2022/08/09 13:02:54;;;;;;;1.00;1.00;;;;;;;;;;5031643;28;20045;-76
2022/08/09 13:05:21;;;;;;;0.93;0.93;;;;;;;;;;5030847;28;20407;-77
2022/08/09 13:08:06;;;;;;;1.23;1.13;;;;;;;;;;5047670;28;20155;-76
2022/08/09 13:10:42;;;;;;;1.27;1.10;;;;;;;;;;5052411;28;20051;-76
2022/08/09 13:13:08;;;;;;;1.23;1.02;;;;;;;;;;5051530;28;20053;-77
2022/08/09 13:15:34;;;;;;;1.95;1.15;;;;;;;;;;5051536;28;20409;-77
2022/08/09 13:18:03;;;;;;;1.20;1.20;;;;;;;;;;5052392;28;20049;-77
2022/08/09 13:20:39;;;;;;;1.15;1.15;;;;;;;;;;5034428;28;20149;-76
2022/08/09 13:23:05;;;;;;;1.17;1.08;;;;;;;;;;5032052;28;20069;-76
2022/08/09 13:25:37;;;;;;;1.70;1.10;;;;;;;;;;5036521;28;20045;-76
2022/08/09 13:28:11;;;;;;;1.00;1.00;;;;;;;;;;5051020;28;20045;-77
2022/08/09 13:30:37;;;;;;;1.20;1.15;;;;;;;;;;5052451;28;20055;-76
2022/08/09 13:33:03;;;;;;;1.52;1.10;;;;;;;;;;5044057;28;20045;-77
2022/08/09 13:35:29;;;;;;;3.53;1.10;;;;;;;;;;5051071;28;20080;-77
2022/08/09 13:37:55;;;;;;;1.00;1.00;;;;;;;;;;5033611;28;20111;-77
2022/08/09 13:40:22;;;;;;;1.30;1.10;;;;;;;;;;5031596;28;20045;-77
2022/08/09 13:42:48;;;;;;;1.10;1.10;;;;;;;;;;5032281;28;20041;-76
2022/08/09 13:45:15;;;;;;;2.00;1.25;;;;;;;;;;5030726;28;20053;-76
2022/08/09 13:47:41;;;;;;;1.00;0.93;;;;;;;;;;5033178;28;20052;-77
2022/08/09 13:50:11;;;;;;;1.30;1.20;;;;;;;;;;5051034;28;20081;-76
2022/08/09 13:52:38;;;;;;;0.90;0.90;;;;;;;;;;5036907;28;20044;-77
2022/08/09 13:55:04;;;;;;;1.10;1.10;;;;;;;;;;5030151;28;20497;-76
2022/08/09 13:57:31;;;;;;;1.00;1.00;;;;;;;;;;5032786;28;20045;-76
2022/08/09 13:59:57;;;;;;;0.90;0.90;;;;;;;;;;5067884;28;20611;-77
2022/08/09 14:02:23;;;;;;;1.05;0.98;;;;;;;;;;5035083;28;20132;-77
2022/08/09 14:04:49;;;;;;;1.20;1.10;;;;;;;;;;5049234;28;20041;-77
2022/08/09 14:07:15;;;;;;;1.65;1.30;;;;;;;;;;5050423;28;20095;-76
2022/08/09 14:09:41;;;;;;;1.23;1.00;;;;;;;;;;5067128;28;20049;-77
2022/08/09 14:12:07;;;;;;;1.58;1.30;;;;;;;;;;5034257;28;20037;-77
2022/08/09 14:14:33;;;;;;;1.20;1.10;;;;;;;;;;5035490;28;20052;-76
2022/08/09 14:16:59;;;;;;;1.08;1.08;;;;;;;;;;5033766;28;20038;-76
2022/08/09 14:19:25;;;;;;;0.90;0.90;;;;;;;;;;5067373;28;20409;-77
2022/08/09 14:21:51;;;;;;;2.35;1.00;;;;;;;;;;5034707;28;20048;-77
2022/08/09 14:24:18;;;;;;;1.55;1.15;;;;;;;;;;5067207;28;20057;-77
2022/08/09 14:26:45;;;;;;;1.67;1.13;;;;;;;;;;5067649;28;20132;-76
2022/08/09 14:29:12;;;;;;;2.42;1.30;;;;;;;;;;5034626;28;20432;-77
2022/08/09 14:31:38;;;;;;;1.40;0.90;;;;;;;;;;5034166;28;20489;-76
2022/08/09 14:34:04;;;;;;;1.50;1.30;;;;;;;;;;5035512;28;20068;-77
2022/08/09 14:36:30;;;;;;;1.63;0.90;;;;;;;;;;5066660;28;20198;-77
2022/08/09 14:38:56;;;;;;;0.82;0.82;;;;;;;;;;5035071;28;20114;-78
2022/08/09 14:41:22;;;;;;;0.85;0.80;;;;;;;;;;5083242;28;20404;-77
2022/08/09 14:43:49;;;;;;;0.88;0.88;;;;;;;;;;5053203;28;20388;-77
2022/08/09 14:46:15;;;;;;;0.70;0.70;;;;;;;;;;5048382;28;20049;-77